createdAt,value
2023-02-04T00:01:08.175Z,0.95
2023-02-04T00:03:34.578Z,0.73
2023-02-04T00:06:03.128Z,0.70
2023-02-04T00:08:29.815Z,1.90
2023-02-04T00:10:56.512Z,1.15
2023-02-04T00:13:23.129Z,0.88
2023-02-04T00:15:49.702Z,1.15
2023-02-04T00:18:16.251Z,1.23
2023-02-04T00:20:42.720Z,1.75
2023-02-04T00:23:09.297Z,1.15
2023-02-04T00:25:35.768Z,1.65
2023-02-04T00:28:02.372Z,1.20
2023-02-04T00:30:30.110Z,1.92
2023-02-04T00:32:57.128Z,3.05
2023-02-04T00:35:24.039Z,2.00
2023-02-04T00:37:51.258Z,2.22
2023-02-04T00:40:19.443Z,0.95
2023-02-04T00:42:46.673Z,1.02
2023-02-04T00:45:13.649Z,1.27
2023-02-04T00:47:40.946Z,0.50
2023-02-04T00:50:07.644Z,3.03
2023-02-04T00:52:35.115Z,1.92
2023-02-04T00:55:02.015Z,1.85
2023-02-04T00:57:28.492Z,0.90
2023-02-04T00:59:54.973Z,1.77
2023-02-04T01:02:21.460Z,0.85
2023-02-04T01:04:47.984Z,2.15
2023-02-04T01:07:14.581Z,1.00
2023-02-04T01:09:41.193Z,0.77
2023-02-04T01:12:07.680Z,1.55
2023-02-04T01:14:36.739Z,1.52
2023-02-04T01:17:03.614Z,0.70
2023-02-04T01:19:30.135Z,2.05
2023-02-04T01:21:57.612Z,1.63
2023-02-04T01:24:24.638Z,1.30
2023-02-04T01:26:53.022Z,1.90
2023-02-04T01:29:32.019Z,1.45
2023-02-04T01:31:59.889Z,2.17
2023-02-04T01:34:27.246Z,0.98
2023-02-04T01:36:54.220Z,1.30
2023-02-04T01:39:21.768Z,2.35
2023-02-04T01:41:49.132Z,0.70
2023-02-04T01:44:15.882Z,3.47
2023-02-04T01:46:42.461Z,2.35
2023-02-04T01:49:09.654Z,2.20
2023-02-04T01:51:37.425Z,1.42
2023-02-04T01:54:04.096Z,3.05
2023-02-04T01:56:31.046Z,1.77
2023-02-04T01:58:58.514Z,1.92
2023-02-04T02:01:38.950Z,1.98
2023-02-04T02:04:05.955Z,1.58
2023-02-04T02:06:32.410Z,1.02
2023-02-04T02:08:58.910Z,0.90
2023-02-04T02:11:26.362Z,1.13
2023-02-04T02:13:52.933Z,1.85
2023-02-04T02:16:19.436Z,1.38
2023-02-04T02:18:46.065Z,2.83
2023-02-04T02:21:13.756Z,1.73
2023-02-04T02:23:46.161Z,1.50
2023-02-04T02:26:13.377Z,0.70
2023-02-04T02:28:39.960Z,1.15
2023-02-04T02:31:06.912Z,2.10
2023-02-04T02:33:33.785Z,1.20
2023-02-04T02:36:00.595Z,1.33
2023-02-04T02:38:27.265Z,5.22
2023-02-04T02:40:54.438Z,1.17
2023-02-04T02:43:22.862Z,0.90
2023-02-04T02:45:50.086Z,0.95
2023-02-04T02:48:16.954Z,1.48
2023-02-04T02:50:44.236Z,0.90
2023-02-04T02:53:14.850Z,1.58
2023-02-04T02:55:41.511Z,1.30
2023-02-04T02:58:16.781Z,1.10
2023-02-04T03:00:44.088Z,1.13
2023-02-04T03:03:16.318Z,1.17
2023-02-04T03:05:44.449Z,1.45
2023-02-04T03:08:12.360Z,0.73
2023-02-04T03:10:39.023Z,3.38
2023-02-04T03:13:05.669Z,1.35
2023-02-04T03:15:32.576Z,1.20
2023-02-04T03:17:59.822Z,1.92
2023-02-04T03:20:28.067Z,2.03
2023-02-04T03:22:55.244Z,2.65
2023-02-04T03:25:24.630Z,1.67
2023-02-04T03:27:51.914Z,3.80
2023-02-04T03:30:18.428Z,1.65
2023-02-04T03:32:44.997Z,1.85
2023-02-04T03:35:11.531Z,3.03
2023-02-04T03:37:38.026Z,1.90
2023-02-04T03:40:04.729Z,2.55
2023-02-04T03:42:31.235Z,1.83
2023-02-04T03:44:57.917Z,2.38
2023-02-04T03:47:24.485Z,1.35
2023-02-04T03:49:51.166Z,1.42
2023-02-04T03:52:17.947Z,2.15
2023-02-04T03:54:44.459Z,1.30
2023-02-04T03:57:10.961Z,0.60
2023-02-04T03:59:37.611Z,1.60
2023-02-04T04:02:04.065Z,1.33
2023-02-04T04:04:30.722Z,1.92
2023-02-04T04:06:57.185Z,1.33
2023-02-04T04:09:23.654Z,1.17
2023-02-04T04:11:50.159Z,0.47
2023-02-04T04:14:16.687Z,1.17
2023-02-04T04:16:43.164Z,0.98
2023-02-04T04:19:09.664Z,1.85
2023-02-04T04:21:36.246Z,0.75
2023-02-04T04:24:02.774Z,0.55
2023-02-04T04:26:29.282Z,0.60
2023-02-04T04:28:55.882Z,1.02
2023-02-04T04:31:22.418Z,1.45
2023-02-04T04:33:49.096Z,0.40
2023-02-04T04:36:16.104Z,3.50
2023-02-04T04:38:42.706Z,2.45
2023-02-04T04:41:09.320Z,1.17
2023-02-04T04:43:35.774Z,1.08
2023-02-04T04:46:02.246Z,1.23
2023-02-04T04:48:28.771Z,0.70
2023-02-04T04:50:55.344Z,2.67
2023-02-04T04:53:21.788Z,0.73
2023-02-04T04:55:48.282Z,0.77
2023-02-04T04:58:14.923Z,0.90
2023-02-04T05:00:41.731Z,0.80
2023-02-04T05:03:08.431Z,0.50
2023-02-04T05:05:39.900Z,0.60
2023-02-04T05:08:10.936Z,1.55
2023-02-04T05:10:37.753Z,0.38
2023-02-04T05:13:04.297Z,1.33
2023-02-04T05:15:30.852Z,0.65
2023-02-04T05:17:58.442Z,0.63
2023-02-04T05:20:25.157Z,1.13
2023-02-04T05:22:52.020Z,0.57
2023-02-04T05:25:18.624Z,1.60
2023-02-04T05:27:45.287Z,1.05
2023-02-04T05:30:11.992Z,0.68
2023-02-04T05:32:38.866Z,0.43
2023-02-04T05:35:05.805Z,0.60
2023-02-04T05:37:32.381Z,1.40
2023-02-04T05:39:58.895Z,0.50
2023-02-04T05:42:25.618Z,0.65
2023-02-04T05:44:52.127Z,0.80
2023-02-04T05:47:20.488Z,1.15
2023-02-04T05:49:46.974Z,0.50
2023-02-04T05:52:13.432Z,0.95
2023-02-04T05:54:39.984Z,0.40
2023-02-04T05:57:06.495Z,0.90
2023-02-04T05:59:32.967Z,1.30
2023-02-04T06:01:59.409Z,0.60
2023-02-04T06:04:25.884Z,0.98
2023-02-04T06:06:52.574Z,0.50
2023-02-04T06:09:18.983Z,0.85
2023-02-04T06:11:45.397Z,0.63
2023-02-04T06:14:11.925Z,0.60
2023-02-04T06:16:38.858Z,0.60
2023-02-04T06:19:05.425Z,0.38
2023-02-04T06:21:31.867Z,0.47
2023-02-04T06:23:58.276Z,1.65
2023-02-04T06:26:24.759Z,0.30
2023-02-04T06:28:51.269Z,2.20
2023-02-04T06:31:17.785Z,0.70
2023-02-04T06:33:44.988Z,0.65
2023-02-04T06:36:11.512Z,0.80
2023-02-04T06:38:37.978Z,0.45
2023-02-04T06:41:04.516Z,0.70
2023-02-04T06:43:30.942Z,0.40
2023-02-04T06:45:57.426Z,0.65
2023-02-04T06:48:23.992Z,1.65
2023-02-04T06:50:51.306Z,0.70
2023-02-04T06:53:17.737Z,0.63
2023-02-04T06:55:44.246Z,0.85
2023-02-04T06:58:10.821Z,0.80
2023-02-04T07:00:37.396Z,0.60
2023-02-04T07:03:03.961Z,0.60
2023-02-04T07:05:31.435Z,0.50
2023-02-04T07:07:57.974Z,0.70
2023-02-04T07:10:24.513Z,0.60
2023-02-04T07:12:50.998Z,0.98
2023-02-04T07:15:17.981Z,0.60
2023-02-04T07:17:44.437Z,3.50
2023-02-04T07:20:11.190Z,0.95
2023-02-04T07:22:37.734Z,0.68
2023-02-04T07:25:04.481Z,0.88
2023-02-04T07:27:31.037Z,0.70
2023-02-04T07:29:57.564Z,0.73
2023-02-04T07:32:24.007Z,0.40
2023-02-04T07:34:50.483Z,2.72
2023-02-04T07:37:17.088Z,0.70
2023-02-04T07:39:43.631Z,1.40
2023-02-04T07:42:10.163Z,1.27
2023-02-04T07:44:37.663Z,0.75
2023-02-04T07:47:04.251Z,0.70
2023-02-04T07:49:30.783Z,1.00
2023-02-04T07:52:00.359Z,2.65
2023-02-04T07:54:26.888Z,1.42
2023-02-04T07:56:53.462Z,0.70
2023-02-04T07:59:20.003Z,0.98
2023-02-04T08:01:47.938Z,2.22
2023-02-04T08:04:14.447Z,1.45
2023-02-04T10:46:36.238Z,3.58
2023-02-04T10:49:06.546Z,3.03
2023-02-04T10:51:33.466Z,0.95
2023-02-04T10:54:18.569Z,5.53
2023-02-04T10:56:45.148Z,2.42
2023-02-04T10:59:19.640Z,7.10
2023-02-04T11:01:46.209Z,2.60
2023-02-04T11:04:12.840Z,2.13
2023-02-04T11:06:39.369Z,5.15
2023-02-04T11:09:05.991Z,3.65
2023-02-04T11:11:32.546Z,1.23
2023-02-04T11:14:05.657Z,2.80
2023-02-04T11:16:35.642Z,2.50
2023-02-04T11:19:04.618Z,1.88
2023-02-04T11:21:33.988Z,1.38
2023-02-04T11:24:05.081Z,6.72
2023-02-04T11:26:32.671Z,1.15
2023-02-04T11:28:59.217Z,2.45
2023-02-04T11:31:26.647Z,1.45
2023-02-04T11:34:13.967Z,5.47
2023-02-04T11:36:59.154Z,1.45
2023-02-04T11:39:44.997Z,1.65
2023-02-04T11:42:18.337Z,1.10
2023-02-04T11:44:55.863Z,1.58
2023-02-04T11:47:23.940Z,1.13
2023-02-04T11:49:54.962Z,2.70
2023-02-04T11:52:21.950Z,0.88
2023-02-04T11:54:55.382Z,1.10
2023-02-04T11:57:21.992Z,0.63
2023-02-04T11:59:48.575Z,0.88
2023-02-04T12:02:15.886Z,1.60
2023-02-04T12:04:50.912Z,3.55
2023-02-04T12:07:21.316Z,0.73
2023-02-04T12:09:48.667Z,0.60
2023-02-04T12:12:23.205Z,0.80
2023-02-04T12:14:56.584Z,3.33
2023-02-04T12:17:23.104Z,0.93
2023-02-04T12:19:49.612Z,0.90
2023-02-04T12:22:16.082Z,0.73
2023-02-04T12:24:44.104Z,0.95
2023-02-04T12:27:10.591Z,2.28
2023-02-04T12:29:37.078Z,0.80
2023-02-04T12:32:03.802Z,1.13
2023-02-04T12:34:30.305Z,0.98
2023-02-04T12:36:56.905Z,1.30
2023-02-04T12:39:23.486Z,0.95
2023-02-04T12:41:50.105Z,1.00
2023-02-04T12:44:17.568Z,0.82
2023-02-04T12:46:44.217Z,0.88
2023-02-04T12:49:10.901Z,0.75
2023-02-04T12:51:37.389Z,0.88
2023-02-04T12:54:03.969Z,1.13
2023-02-04T12:56:30.619Z,1.10
2023-02-04T12:58:57.110Z,2.17
2023-02-04T13:01:23.672Z,0.80
2023-02-04T13:03:50.221Z,0.80
2023-02-04T13:06:16.885Z,1.10
2023-02-04T13:08:43.389Z,0.90
2023-02-04T13:11:09.866Z,0.90
2023-02-04T13:13:36.420Z,0.85
2023-02-04T13:16:03.022Z,0.90
2023-02-04T13:18:29.630Z,3.80
2023-02-04T13:20:56.199Z,2.05
2023-02-04T13:23:22.674Z,1.45
2023-02-04T13:25:49.239Z,2.88
2023-02-04T13:28:15.967Z,2.03
2023-02-04T13:30:42.752Z,2.53
2023-02-04T13:33:09.304Z,1.73
2023-02-04T13:35:35.980Z,3.47
2023-02-04T13:38:02.524Z,1.67
2023-02-04T13:40:29.122Z,1.05
2023-02-04T13:42:55.674Z,1.30
2023-02-04T13:45:22.331Z,2.15
2023-02-04T13:47:49.003Z,4.40
2023-02-04T13:50:16.439Z,4.20
2023-02-04T13:52:42.965Z,6.20
2023-02-04T13:55:09.688Z,2.78
2023-02-04T13:57:37.436Z,3.38
2023-02-04T14:00:04.935Z,7.95
2023-02-04T14:02:31.566Z,2.80
2023-02-04T14:04:58.663Z,3.63
2023-02-04T14:07:25.218Z,2.25
2023-02-04T14:09:51.745Z,4.32
2023-02-04T14:12:18.236Z,4.40
2023-02-04T14:14:44.884Z,2.08
2023-02-04T14:17:11.328Z,2.80
2023-02-04T14:19:37.942Z,4.78
2023-02-04T14:22:04.462Z,1.30
2023-02-04T14:24:31.351Z,1.90
2023-02-04T14:26:57.962Z,3.15
2023-02-04T14:29:24.682Z,1.83
2023-02-04T14:31:51.385Z,1.90
2023-02-04T14:34:17.967Z,1.48
2023-02-04T14:36:44.800Z,8.18
2023-02-04T14:39:11.402Z,4.32
2023-02-04T14:41:38.242Z,5.20
2023-02-04T14:44:04.920Z,11.27
2023-02-04T14:46:31.468Z,23.02
2023-02-04T14:48:57.972Z,10.02
2023-02-04T14:51:24.680Z,12.25
2023-02-04T14:53:51.807Z,7.10
2023-02-04T14:56:18.524Z,6.45
2023-02-04T14:58:45.084Z,4.72
2023-02-04T15:01:11.805Z,4.10
2023-02-04T15:03:38.344Z,3.80
2023-02-04T15:06:05.140Z,5.00
2023-02-04T15:08:32.956Z,5.22
2023-02-04T15:10:59.462Z,5.75
2023-02-04T15:13:28.637Z,3.55
2023-02-04T15:15:55.696Z,5.85
2023-02-04T15:18:22.496Z,4.05
2023-02-04T15:20:49.023Z,3.72
2023-02-04T15:23:15.483Z,3.30
2023-02-04T15:25:42.007Z,6.40
2023-02-04T15:28:10.914Z,3.53
2023-02-04T15:30:38.695Z,3.72
2023-02-04T15:33:05.331Z,3.63
2023-02-04T15:35:31.807Z,3.67
2023-02-04T15:37:58.249Z,3.47
2023-02-04T15:40:24.750Z,3.95
2023-02-04T15:42:53.027Z,4.68
2023-02-04T15:45:19.565Z,2.70
2023-02-04T15:47:46.361Z,3.60
2023-02-04T15:50:15.293Z,5.18
2023-02-04T15:52:41.879Z,3.45
2023-02-04T15:55:08.692Z,4.40
2023-02-04T15:57:35.836Z,9.90
2023-02-04T16:00:04.037Z,4.35
2023-02-04T16:02:30.606Z,4.85
2023-02-04T16:04:57.138Z,8.13
2023-02-04T16:07:23.596Z,5.95
2023-02-04T16:09:50.185Z,6.55
2023-02-04T16:12:16.645Z,4.82
2023-02-04T16:14:43.126Z,3.97
2023-02-04T16:17:09.839Z,5.70
2023-02-04T16:19:36.298Z,4.13
2023-02-04T16:22:02.939Z,5.93
2023-02-04T16:24:29.704Z,4.25
2023-02-04T16:26:56.250Z,3.60
2023-02-04T16:29:22.745Z,4.53
2023-02-04T16:31:49.270Z,6.10
2023-02-04T16:34:15.812Z,3.72
2023-02-04T16:36:42.315Z,5.18
2023-02-04T16:39:08.861Z,3.40
2023-02-04T16:41:35.303Z,2.28
2023-02-04T16:44:01.890Z,3.25
2023-02-04T16:46:30.584Z,3.30
2023-02-04T16:48:57.240Z,1.98
2023-02-04T16:51:24.965Z,3.63
2023-02-04T16:53:51.509Z,4.25
2023-02-04T16:56:18.149Z,2.63
2023-02-04T16:58:45.038Z,2.38
2023-02-04T17:01:11.619Z,1.95
2023-02-04T17:03:38.069Z,4.18
2023-02-04T17:06:04.685Z,2.95
2023-02-04T17:08:31.138Z,2.20
2023-02-04T17:11:16.410Z,2.63
2023-02-04T17:13:42.860Z,2.03
2023-02-04T17:16:09.374Z,2.05
2023-02-04T17:18:43.042Z,2.17
2023-02-04T17:21:09.560Z,2.17
2023-02-04T17:23:36.118Z,4.18
2023-02-04T17:26:02.592Z,5.03
2023-02-04T17:28:29.144Z,3.17
2023-02-04T17:30:55.898Z,2.63
2023-02-04T17:33:22.524Z,2.72
2023-02-04T17:35:49.219Z,3.85
2023-02-04T17:38:15.706Z,2.15
2023-02-04T17:40:43.103Z,2.15
2023-02-04T17:43:09.716Z,4.15
2023-02-04T17:45:37.990Z,1.90
2023-02-04T17:48:05.586Z,2.95
2023-02-04T17:53:08.169Z,2.63
2023-02-04T17:55:35.416Z,2.95
2023-02-04T17:58:08.730Z,3.10
2023-02-04T18:00:35.594Z,2.63
2023-02-04T18:03:02.525Z,3.20
2023-02-04T18:05:30.792Z,2.65
2023-02-04T18:08:04.591Z,4.05
2023-02-04T18:10:33.137Z,2.85
2023-02-04T18:13:01.198Z,2.65
2023-02-04T18:15:29.368Z,2.30
2023-02-04T18:18:02.335Z,2.30
2023-02-04T18:20:28.825Z,3.90
2023-02-04T18:22:56.565Z,1.90
2023-02-04T18:25:23.987Z,1.42
2023-02-04T18:27:50.709Z,2.55
2023-02-04T18:30:20.012Z,1.90
2023-02-04T18:32:50.152Z,2.53
2023-02-04T18:35:22.821Z,2.97
2023-02-04T18:37:51.977Z,2.00
2023-02-04T18:40:26.782Z,3.10
2023-02-04T18:43:12.670Z,2.63
2023-02-04T18:45:41.017Z,1.52
2023-02-04T18:48:20.420Z,3.65
2023-02-04T18:50:52.048Z,1.98
2023-02-04T18:53:22.526Z,2.95
2023-02-04T18:55:50.438Z,2.72
2023-02-04T18:58:17.362Z,1.83
2023-02-04T19:00:47.831Z,2.72
2023-02-04T19:03:25.597Z,1.83
2023-02-04T19:05:52.743Z,2.67
2023-02-04T19:08:24.059Z,1.20
2023-02-04T19:10:51.642Z,2.42
2023-02-04T19:13:18.588Z,2.20
2023-02-04T19:15:45.910Z,1.45
2023-02-04T19:18:39.524Z,2.50
2023-02-04T19:21:20.345Z,1.42
2023-02-04T19:23:47.085Z,1.52
2023-02-04T19:26:29.196Z,3.70
2023-02-04T19:28:56.223Z,1.77
2023-02-04T19:31:22.935Z,1.88
2023-02-04T19:33:50.703Z,1.60
2023-02-04T19:36:37.063Z,2.05
2023-02-04T19:39:21.974Z,1.60
2023-02-04T19:41:49.361Z,1.75
2023-02-04T19:44:31.195Z,1.65
2023-02-04T19:46:57.935Z,1.52
2023-02-04T19:49:25.635Z,1.70
2023-02-04T19:51:53.745Z,1.25
2023-02-04T19:54:24.209Z,2.45
2023-02-04T19:56:54.638Z,1.92
2023-02-04T19:59:21.091Z,3.72
2023-02-04T20:01:47.762Z,1.92
2023-02-04T20:04:14.767Z,8.30
2023-02-04T20:06:43.213Z,20.65
2023-02-04T20:09:18.297Z,12.10
2023-02-04T20:11:56.359Z,4.07
2023-02-04T20:14:50.312Z,5.00
2023-02-04T20:17:19.324Z,1.55
2023-02-04T20:19:46.180Z,3.83
2023-02-04T20:22:19.074Z,1.65
2023-02-04T20:24:49.834Z,3.63
2023-02-04T20:27:22.734Z,1.92
2023-02-04T20:29:51.835Z,3.78
2023-02-04T20:32:28.327Z,1.73
2023-02-04T20:34:54.819Z,2.10
2023-02-04T20:37:27.931Z,1.40
2023-02-04T20:39:54.530Z,1.73
2023-02-04T20:42:24.561Z,2.28
2023-02-04T20:44:51.255Z,1.25
2023-02-04T20:47:18.680Z,2.33
2023-02-04T20:49:52.610Z,3.63
2023-02-04T20:52:37.532Z,2.55
2023-02-04T20:55:15.373Z,1.23
2023-02-04T20:57:41.831Z,1.33
2023-02-04T21:00:26.114Z,1.73
2023-02-04T21:03:05.551Z,3.22
2023-02-04T21:05:39.488Z,1.17
2023-02-04T21:08:31.387Z,1.17
2023-02-04T21:11:02.883Z,2.28
2023-02-04T21:13:31.155Z,1.30
2023-02-04T21:16:00.198Z,1.65
2023-02-04T21:18:26.793Z,1.25
2023-02-04T21:20:53.318Z,1.52
2023-02-04T21:23:19.963Z,0.70
2023-02-04T21:25:46.512Z,2.08
2023-02-04T21:28:13.222Z,2.25
2023-02-04T21:30:39.734Z,1.60
2023-02-04T21:33:06.321Z,0.80
2023-02-04T21:35:33.371Z,0.80
2023-02-04T21:38:04.104Z,2.28
2023-02-04T21:40:31.490Z,1.30
2023-02-04T21:42:57.989Z,1.48
2023-02-04T21:45:25.018Z,1.17
2023-02-04T21:47:52.193Z,1.10
2023-02-04T21:50:19.961Z,2.47
2023-02-04T21:52:46.686Z,1.45
2023-02-04T21:55:14.344Z,2.78
2023-02-04T21:57:40.865Z,1.17
2023-02-04T22:00:07.970Z,1.27
2023-02-04T22:02:34.505Z,1.35
2023-02-04T22:05:01.031Z,3.30
2023-02-04T22:07:27.540Z,1.58
2023-02-04T22:09:54.001Z,1.13
2023-02-04T22:12:20.479Z,2.30
2023-02-04T22:14:46.924Z,1.33
2023-02-04T22:17:13.448Z,1.10
2023-02-04T22:19:39.921Z,2.35
2023-02-04T22:22:06.419Z,0.90
2023-02-04T22:24:32.973Z,0.93
2023-02-04T22:26:59.478Z,1.20
2023-02-04T22:29:29.962Z,3.55
2023-02-04T22:31:56.605Z,3.17
2023-02-04T22:34:23.158Z,4.05
2023-02-04T22:36:49.645Z,1.10
2023-02-04T22:39:16.094Z,1.38
2023-02-04T22:41:42.667Z,1.92
2023-02-04T22:44:09.149Z,1.15
2023-02-04T22:46:35.807Z,1.50
2023-02-04T22:49:02.565Z,1.10
2023-02-04T22:51:29.138Z,1.38
2023-02-04T22:53:56.044Z,1.73
2023-02-04T22:56:22.748Z,2.55
2023-02-04T22:58:50.561Z,2.15
2023-02-04T23:01:18.688Z,1.02
2023-02-04T23:03:45.175Z,2.58
2023-02-04T23:06:11.815Z,1.15
2023-02-04T23:08:38.263Z,3.17
2023-02-04T23:11:05.179Z,1.08
2023-02-04T23:13:31.759Z,3.50
2023-02-04T23:15:58.393Z,1.10
2023-02-04T23:18:24.962Z,1.10
2023-02-04T23:20:51.476Z,1.30
2023-02-04T23:23:18.560Z,1.13
2023-02-04T23:25:46.217Z,1.58
2023-02-04T23:28:12.877Z,2.60
2023-02-04T23:30:39.513Z,1.25
2023-02-04T23:33:06.030Z,1.20
2023-02-04T23:35:32.998Z,1.40
2023-02-04T23:37:59.708Z,0.85
2023-02-04T23:40:26.251Z,1.13
2023-02-04T23:42:53.498Z,1.20
2023-02-04T23:45:20.964Z,1.27
2023-02-04T23:47:47.684Z,1.63
2023-02-04T23:50:14.201Z,1.70
2023-02-04T23:52:40.813Z,1.35
2023-02-04T23:55:07.453Z,0.90
2023-02-04T23:57:33.837Z,1.92
